Time;durP1;ratioP1;P1;durP2;ratioP2;P2;SDS_P1;SDS_P2;PMS_P1;PMS_P2;Temp;Humidity;BMP_temperature;BMP_pressure;BME280_temperature;BME280_humidity;BME280_pressure;Samples;Min_cycle;Max_cycle;Signal;HPM_P1;HPM_P2
2022/09/26 00:02:13;;;;;;;15.00;12.70;;;;;;;11.75;84.33;99951.52;1770963;80;20949;-76
2022/09/26 00:04:39;;;;;;;15.80;12.07;;;;;;;11.73;84.54;99957.06;1774470;80;20995;-80
2022/09/26 00:07:06;;;;;;;13.45;12.15;;;;;;;11.74;84.66;99952.56;1763076;80;21052;-75
2022/09/26 00:09:32;;;;;;;15.25;12.73;;;;;;;11.73;84.61;99959.73;1761772;79;21064;-77
2022/09/26 00:11:58;;;;;;;13.58;12.30;;;;;;;11.71;84.64;99954.30;1770612;80;21097;-76
2022/09/26 00:14:28;;;;;;;14.10;12.18;;;;;;;11.71;84.90;99957.78;1771078;80;21014;-75
2022/09/26 00:16:55;;;;;;;12.23;11.03;;;;;;;11.73;84.87;99951.72;1760699;80;20949;-79
2022/09/26 00:19:21;;;;;;;12.88;11.57;;;;;;;11.75;84.84;99952.86;1763229;80;21474;-76
2022/09/26 00:21:48;;;;;;;14.53;12.25;;;;;;;11.77;84.93;99956.98;1704353;81;21083;-75
2022/09/26 00:24:14;;;;;;;12.10;11.00;;;;;;;11.78;84.57;99961.28;1683029;83;21025;-76
2022/09/26 00:26:40;;;;;;;12.35;11.05;;;;;;;11.77;84.38;99965.00;1675721;84;21461;-79
2022/09/26 00:29:10;;;;;;;11.30;10.05;;;;;;;11.79;84.25;99961.60;1670710;84;21054;-76
2022/09/26 00:31:43;;;;;;;11.68;10.68;;;;;;;11.81;83.98;99956.88;1686776;84;21003;-76
2022/09/26 00:34:13;;;;;;;12.13;10.85;;;;;;;11.82;83.83;99949.68;1681221;84;21003;-76
2022/09/26 00:36:39;;;;;;;11.45;10.35;;;;;;;11.83;83.80;99949.48;1705109;82;21116;-76
2022/09/26 00:39:07;;;;;;;14.53;10.08;;;;;;;11.84;83.70;99949.77;1702157;83;21023;-78
2022/09/26 00:41:35;;;;;;;10.98;9.88;;;;;;;11.85;83.92;99944.75;1718669;83;21038;-83
2022/09/26 00:44:02;;;;;;;10.82;9.85;;;;;;;11.86;83.99;99943.70;1710561;83;21014;-75
2022/09/26 00:46:40;;;;;;;11.12;9.55;;;;;;;11.89;84.61;99946.50;1721838;82;21015;-76
2022/09/26 00:49:30;;;;;;;11.50;10.28;;;;;;;11.91;85.03;99940.98;1710981;82;21011;-76
2022/09/26 00:52:08;;;;;;;11.70;10.58;;;;;;;11.94;85.28;99947.23;1712881;83;21538;-77
2022/09/26 00:54:41;;;;;;;11.28;10.20;;;;;;;11.95;85.99;99939.54;1712876;83;21083;-75
2022/09/26 00:57:12;;;;;;;10.68;9.68;;;;;;;11.95;86.88;99944.88;1676368;84;20996;-78
2022/09/26 00:59:49;;;;;;;9.78;8.90;;;;;;;11.94;86.92;99937.89;1674749;84;21094;-78
2022/09/26 01:02:16;;;;;;;12.40;10.77;;;;;;;11.89;86.58;99927.80;1710809;82;21101;-78
2022/09/26 01:04:44;;;;;;;11.08;10.08;;;;;;;11.84;86.21;99931.08;1722908;82;21024;-76
2022/09/26 01:07:18;;;;;;;10.53;9.53;;;;;;;11.82;85.67;99937.14;1694423;83;20984;-76
2022/09/26 01:09:46;;;;;;;11.15;10.08;;;;;;;11.79;85.63;99930.90;1703205;83;21489;-78
2022/09/26 01:12:15;;;;;;;10.55;9.55;;;;;;;11.78;85.27;99929.77;1692372;83;20987;-76
2022/09/26 01:14:44;;;;;;;14.70;10.23;;;;;;;11.76;85.14;99932.63;1693559;83;21025;-76
2022/09/26 01:17:12;;;;;;;11.65;10.60;;;;;;;11.71;85.28;99925.75;1679503;82;21097;-76
2022/09/26 01:19:53;;;;;;;11.25;8.98;;;;;;;11.71;84.87;99932.42;1701112;83;20990;-76
2022/09/26 01:22:53;;;;;;;12.15;10.05;;;;;;;11.69;84.80;99921.12;1716907;82;21030;-77
2022/09/26 01:25:37;;;;;;;9.73;8.77;;;;;;;11.68;84.70;99918.17;1724106;82;20981;-91
2022/09/26 01:28:44;;;;;;;10.40;9.48;;;;;;;11.68;84.49;99918.17;1707392;83;21148;-79
2022/09/26 01:31:25;;;;;;;9.97;8.97;;;;;;;11.66;84.12;99914.89;1725006;83;20982;-76
2022/09/26 01:34:14;;;;;;;9.78;8.88;;;;;;;11.66;84.33;99917.03;1717821;82;21517;-75
2022/09/26 01:37:05;;;;;;;9.53;8.68;;;;;;;11.64;84.37;99918.24;1698606;82;21557;-76
2022/09/26 01:40:10;;;;;;;9.95;8.95;;;;;;;11.64;84.61;99913.75;1723094;82;21580;-75
2022/09/26 01:42:54;;;;;;;10.13;9.23;;;;;;;11.64;84.84;99910.23;1729083;82;21040;-76
2022/09/26 01:45:27;;;;;;;10.10;9.17;;;;;;;11.64;85.40;99922.25;1700726;83;21002;-76
2022/09/26 01:48:04;;;;;;;11.30;10.03;;;;;;;11.64;86.00;99925.77;1722429;82;21076;-81
2022/09/26 01:50:54;;;;;;;12.13;10.08;;;;;;;11.63;85.89;99925.44;1720388;83;21037;-75
2022/09/26 01:53:40;;;;;;;10.35;9.13;;;;;;;11.65;86.31;99929.25;1720283;82;21089;-75
2022/09/26 01:56:13;;;;;;;11.15;9.93;;;;;;;11.69;86.50;99934.47;1724709;82;20965;-79
2022/09/26 01:58:47;;;;;;;11.60;9.83;;;;;;;11.69;86.53;99926.47;1704885;83;21035;-76
2022/09/26 02:01:18;;;;;;;11.25;10.15;;;;;;;11.71;86.84;99932.94;1701428;83;21564;-76
2022/09/26 02:03:53;;;;;;;9.13;8.23;;;;;;;11.72;86.81;99927.41;1707567;82;20984;-77
2022/09/26 02:06:36;;;;;;;11.00;9.15;;;;;;;11.73;86.81;99929.03;1733008;81;20991;-77
2022/09/26 02:09:14;;;;;;;10.40;9.18;;;;;;;11.70;86.73;99921.45;1737165;82;20980;-77
2022/09/26 02:11:46;;;;;;;11.33;10.20;;;;;;;11.68;87.14;99924.32;1735385;81;22095;-76
2022/09/26 02:14:28;;;;;;;10.70;9.70;;;;;;;11.68;87.22;99917.64;1734193;80;21073;-75
2022/09/26 02:17:12;;;;;;;14.55;9.78;;;;;;;11.70;87.40;99920.11;1734140;81;21046;-82
2022/09/26 02:19:57;;;;;;;9.48;8.58;;;;;;;11.70;87.66;99922.78;1735005;81;21577;-77
2022/09/26 02:22:33;;;;;;;10.72;9.73;;;;;;;11.72;87.58;99919.91;1734911;81;21075;-78
2022/09/26 02:25:02;;;;;;;10.90;9.90;;;;;;;11.73;87.92;99913.53;1725758;81;21511;-77
2022/09/26 02:27:29;;;;;;;10.38;9.38;;;;;;;11.74;88.17;99907.17;1727213;81;21043;-76
2022/09/26 02:29:57;;;;;;;10.48;9.40;;;;;;;11.77;88.27;99914.27;1731756;81;21011;-77
2022/09/26 02:32:28;;;;;;;10.15;9.28;;;;;;;11.81;88.54;99915.98;1735605;81;21229;-77
2022/09/26 02:34:56;;;;;;;9.80;8.80;;;;;;;11.80;88.74;99913.83;1735604;81;21095;-80
2022/09/26 02:37:24;;;;;;;10.30;9.20;;;;;;;11.81;89.31;99916.83;1725716;81;20991;-75
2022/09/26 02:39:52;;;;;;;10.32;9.38;;;;;;;11.82;89.64;99920.31;1731037;81;21102;-77
2022/09/26 02:42:47;;;;;;;10.25;9.38;;;;;;;11.82;90.07;99917.63;1723647;81;21007;-75
2022/09/26 02:45:41;;;;;;;10.53;9.63;;;;;;;11.81;90.34;99911.97;1731131;81;21038;-75
2022/09/26 02:48:31;;;;;;;11.20;8.65;;;;;;;11.77;90.75;99904.92;1735365;81;21060;-77
2022/09/26 02:51:26;;;;;;;9.70;8.83;;;;;;;11.75;91.34;99904.27;1735750;81;21011;-75
2022/09/26 02:54:30;;;;;;;8.93;8.23;;;;;;;11.75;91.84;99902.94;1746895;81;21101;-76
2022/09/26 02:57:08;;;;;;;10.80;9.70;;;;;;;11.73;92.18;99905.00;1730387;81;21036;-77
2022/09/26 02:59:44;;;;;;;10.08;9.18;;;;;;;11.70;92.56;99900.09;1733347;81;21593;-75
2022/09/26 03:02:22;;;;;;;10.00;9.18;;;;;;;11.69;93.02;99905.92;1726726;81;21124;-76
2022/09/26 03:05:00;;;;;;;10.78;9.75;;;;;;;11.68;93.39;99908.82;1730752;81;21019;-77
2022/09/26 03:07:41;;;;;;;9.88;8.98;;;;;;;11.64;93.80;99907.08;1734806;81;21581;-79
2022/09/26 03:10:10;;;;;;;11.03;9.85;;;;;;;11.63;94.23;99897.94;1734105;81;21110;-77
2022/09/26 03:12:37;;;;;;;11.35;10.28;;;;;;;11.59;94.48;99895.37;1734757;81;21555;-76
2022/09/26 03:15:07;;;;;;;10.20;9.20;;;;;;;11.57;94.83;99889.42;1735904;81;22443;-80
2022/09/26 03:17:37;;;;;;;10.13;9.20;;;;;;;11.55;95.01;99885.62;1728186;80;21038;-76
2022/09/26 03:20:09;;;;;;;10.88;9.63;;;;;;;11.55;95.40;99883.47;1671722;83;21102;-75
2022/09/26 03:22:41;;;;;;;11.12;10.13;;;;;;;11.55;95.75;99878.95;1704285;83;21007;-76
2022/09/26 03:25:12;;;;;;;10.65;9.63;;;;;;;11.55;96.02;99876.80;1704340;82;20976;-76
2022/09/26 03:27:42;;;;;;;11.00;9.98;;;;;;;11.56;96.26;99878.42;1691059;83;21023;-77
2022/09/26 03:30:11;;;;;;;11.45;9.98;;;;;;;11.58;96.41;99875.03;1719584;82;20996;-75
2022/09/26 03:32:39;;;;;;;11.12;10.03;;;;;;;11.61;96.63;99871.96;1682283;82;21050;-76
2022/09/26 03:35:07;;;;;;;12.68;9.93;;;;;;;11.62;96.63;99875.77;1706221;83;21078;-77
2022/09/26 03:37:36;;;;;;;12.63;10.43;;;;;;;11.64;96.61;99875.05;1701086;83;21049;-76
2022/09/26 03:40:04;;;;;;;9.98;9.05;;;;;;;11.65;96.52;99874.52;1710559;83;20997;-76
2022/09/26 03:42:33;;;;;;;10.53;9.53;;;;;;;11.67;96.71;99874.61;1703151;83;21564;-76
2022/09/26 03:45:01;;;;;;;11.60;9.08;;;;;;;11.67;96.91;99879.95;1700373;83;21031;-76
2022/09/26 03:47:27;;;;;;;10.85;9.75;;;;;;;11.67;97.00;99877.28;1688395;83;21571;-77
2022/09/26 03:49:53;;;;;;;;;;;;;;;11.64;97.11;99880.38;1679340;83;21035;-77
2022/09/26 03:52:23;;;;;;;10.75;9.68;;;;;;;11.63;97.21;99885.40;1690571;83;20452;-78
2022/09/26 03:54:50;;;;;;;10.40;9.47;;;;;;;11.54;97.50;99889.82;1704821;82;20992;-78
2022/09/26 03:57:17;;;;;;;11.40;10.30;;;;;;;11.49;97.84;99881.11;1703131;82;21546;-78
2022/09/26 03:59:48;;;;;;;10.53;9.63;;;;;;;11.48;98.01;99876.78;1678465;83;21641;-80
2022/09/26 04:02:16;;;;;;;10.98;10.03;;;;;;;11.46;98.24;99890.84;1709293;82;21067;-78
2022/09/26 04:04:43;;;;;;;10.75;9.85;;;;;;;11.46;98.56;99894.33;1688237;82;21352;-78
2022/09/26 04:07:09;;;;;;;11.20;10.13;;;;;;;11.46;98.86;99906.34;1727857;82;20971;-78
2022/09/26 04:09:36;;;;;;;11.22;10.13;;;;;;;11.44;98.85;99901.72;1708519;82;20981;-78
2022/09/26 04:12:03;;;;;;;12.23;10.60;;;;;;;11.41;98.59;99892.78;1702570;82;21516;-75
2022/09/26 04:14:32;;;;;;;11.83;10.63;;;;;;;11.37;98.58;99896.89;1670113;83;21875;-76
2022/09/26 04:16:58;;;;;;;10.87;9.77;;;;;;;11.34;98.79;99887.98;1708793;81;21033;-81
2022/09/26 04:19:27;;;;;;;11.77;10.57;;;;;;;11.32;99.20;99890.03;1726048;81;21060;-80
2022/09/26 04:21:53;;;;;;;13.78;11.63;;;;;;;11.32;99.58;99897.19;1734749;81;21007;-78
2022/09/26 04:24:20;;;;;;;11.73;10.63;;;;;;;11.32;99.87;99891.36;1741836;80;21026;-80
2022/09/26 04:26:46;;;;;;;12.43;11.08;;;;;;;11.31;100.00;99892.38;1690822;83;20990;-77
2022/09/26 04:29:14;;;;;;;12.37;11.15;;;;;;;11.27;100.00;99895.96;1693153;83;20965;-79
2022/09/26 04:31:45;;;;;;;13.17;11.90;;;;;;;11.22;100.00;99887.73;1700862;83;20982;-80
2022/09/26 04:34:13;;;;;;;13.83;11.30;;;;;;;11.20;100.00;99888.98;1710725;82;20984;-76
2022/09/26 04:36:41;;;;;;;13.68;12.43;;;;;;;11.18;99.95;99885.69;1716822;82;21753;-76
2022/09/26 04:39:08;;;;;;;14.23;10.93;;;;;;;11.15;99.39;99879.42;1716741;83;21478;-75
2022/09/26 04:41:35;;;;;;;13.23;12.03;;;;;;;11.14;99.35;99879.13;1721144;81;20985;-76
2022/09/26 04:44:02;;;;;;;13.80;12.40;;;;;;;11.10;99.43;99887.52;1709974;83;21580;-80
2022/09/26 04:46:30;;;;;;;12.63;11.28;;;;;;;11.05;98.93;99883.30;1715209;83;21064;-76
2022/09/26 04:48:59;;;;;;;12.93;11.63;;;;;;;11.00;99.13;99880.44;1720639;82;21093;-77
2022/09/26 04:51:28;;;;;;;12.87;11.43;;;;;;;10.96;99.26;99883.70;1707629;82;21299;-77
2022/09/26 04:53:55;;;;;;;11.80;10.70;;;;;;;10.93;99.72;99883.60;1721973;81;21068;-75
2022/09/26 04:56:29;;;;;;;12.90;11.77;;;;;;;10.89;99.60;99881.03;1680262;82;21060;-75
2022/09/26 04:58:57;;;;;;;12.27;11.13;;;;;;;10.87;99.02;99883.08;1750503;82;21510;-76
2022/09/26 05:01:27;;;;;;;13.80;10.97;;;;;;;10.87;99.32;99881.75;1728015;81;21063;-75
2022/09/26 05:03:57;;;;;;;11.80;10.63;;;;;;;10.87;99.36;99882.56;1714957;83;20959;-75
2022/09/26 05:06:23;;;;;;;12.67;10.97;;;;;;;10.88;99.26;99882.04;1722877;82;20994;-83
2022/09/26 05:08:50;;;;;;;;;;;;;;;10.88;99.28;99882.04;1718274;82;21073;-88
2022/09/26 05:11:19;;;;;;;12.23;11.13;;;;;;;10.89;98.87;99879.70;1723366;83;20244;-86
2022/09/26 05:13:49;;;;;;;14.00;12.60;;;;;;;10.82;98.68;99878.34;1687686;83;21012;-76
2022/09/26 05:16:17;;;;;;;12.30;11.10;;;;;;;10.84;98.83;99886.14;1692732;83;20990;-75
2022/09/26 05:18:50;;;;;;;11.10;9.77;;;;;;;10.86;98.66;99882.76;1715283;83;21038;-78
2022/09/26 05:21:17;;;;;;;12.50;10.97;;;;;;;10.86;98.32;99886.23;1699648;83;21093;-78
2022/09/26 05:26:38;;;;;;;12.50;10.93;;;;;;;10.88;98.37;99894.85;1677945;84;21195;-77
2022/09/26 05:29:05;;;;;;;11.67;10.53;;;;;;;10.90;98.31;99895.98;1702966;81;21063;-78
2022/09/26 05:31:36;;;;;;;10.47;9.50;;;;;;;10.89;98.63;99886.37;1730824;81;21576;-81
2022/09/26 05:34:03;;;;;;;11.87;10.20;;;;;;;10.89;98.48;99889.84;1705485;81;21048;-78
2022/09/26 05:36:29;;;;;;;15.00;10.33;;;;;;;10.88;98.23;99882.04;1721217;82;21512;-78
2022/09/26 05:38:56;;;;;;;12.07;10.75;;;;;;;10.86;98.25;99877.42;1694892;83;21560;-78
2022/09/26 05:41:22;;;;;;;;;;;;;;;10.84;97.53;99875.47;1701807;83;21529;-82
2022/09/26 05:43:48;;;;;;;11.17;10.07;;;;;;;10.82;97.87;99881.52;1681931;83;20103;-80
2022/09/26 05:46:16;;;;;;;10.87;9.83;;;;;;;10.78;98.35;99880.28;1698871;82;21032;-78
2022/09/26 05:48:44;;;;;;;10.47;9.57;;;;;;;10.79;98.02;99874.73;1714213;82;21447;-78
2022/09/26 05:51:16;;;;;;;11.93;10.77;;;;;;;10.83;98.02;99876.48;1722053;82;21098;-78
2022/09/26 05:53:45;;;;;;;12.07;10.90;;;;;;;10.87;97.89;99876.41;1711700;82;21119;-78
2022/09/26 05:56:16;;;;;;;10.57;9.67;;;;;;;10.94;98.12;99883.08;1730268;82;20934;-77
2022/09/26 05:58:54;;;;;;;12.67;10.80;;;;;;;10.94;98.78;99869.75;1716650;83;21049;-77
2022/09/26 06:01:25;;;;;;;10.80;9.60;;;;;;;10.94;98.15;99869.75;1708976;82;21005;-77
2022/09/26 06:03:55;;;;;;;10.20;9.30;;;;;;;10.96;98.50;99869.84;1715492;82;21437;-79
2022/09/26 06:06:23;;;;;;;10.60;9.60;;;;;;;10.99;98.36;99865.45;1713486;81;21022;-80
2022/09/26 06:08:52;;;;;;;12.77;9.87;;;;;;;11.00;98.77;99857.77;1693545;82;20982;-77
2022/09/26 06:11:29;;;;;;;10.33;9.43;;;;;;;10.99;99.04;99856.64;1736008;81;21595;-78
2022/09/26 06:13:54;;;;;;;10.10;9.20;;;;;;;10.98;98.92;99859.83;1745965;80;21627;-81
2022/09/26 06:16:22;;;;;;;13.83;8.60;;;;;;;11.00;99.11;99855.59;1744168;81;20986;-93
2022/09/26 06:18:51;;;;;;;9.23;8.37;;;;;;;10.99;98.87;99864.12;1716255;83;21044;-79
2022/09/26 06:21:19;;;;;;;11.23;10.13;;;;;;;11.02;98.77;99867.72;1716148;82;21503;-80
2022/09/26 06:23:49;;;;;;;9.37;8.43;;;;;;;11.04;98.63;99864.34;1719805;82;21058;-80
2022/09/26 06:26:21;;;;;;;10.07;9.10;;;;;;;11.09;98.45;99863.23;1724572;80;21041;-76
2022/09/26 06:28:52;;;;;;;10.77;9.17;;;;;;;11.14;98.61;99871.13;1706871;83;21045;-81
2022/09/26 06:31:18;;;;;;;8.93;8.13;;;;;;;11.19;98.73;99865.98;1728820;81;21049;-78
2022/09/26 06:33:52;;;;;;;10.30;9.38;;;;;;;11.26;98.65;99866.32;1703736;82;21493;-78
2022/09/26 06:36:37;;;;;;;9.98;9.00;;;;;;;11.34;98.23;99869.79;1692990;83;21557;-78
2022/09/26 06:39:04;;;;;;;9.83;8.90;;;;;;;11.36;98.04;99871.25;1702012;83;21238;-78
2022/09/26 06:41:34;;;;;;;8.87;8.07;;;;;;;11.37;97.89;99880.06;1700105;83;21050;-79
2022/09/26 06:44:03;;;;;;;9.47;8.47;;;;;;;11.36;97.88;99875.25;1694224;83;21498;-79
2022/09/26 06:46:48;;;;;;;8.57;7.77;;;;;;;11.34;97.55;99870.63;1697344;83;21037;-81
2022/09/26 06:49:16;;;;;;;9.97;9.07;;;;;;;11.33;97.62;99868.98;1709010;82;22281;-80
2022/09/26 06:51:50;;;;;;;10.47;8.40;;;;;;;11.37;97.88;99865.39;1629842;84;21007;-79
2022/09/26 06:54:17;;;;;;;8.93;8.13;;;;;;;11.43;97.89;99867.23;1687205;84;21266;-81
2022/09/26 06:56:44;;;;;;;9.18;7.92;;;;;;;11.48;97.52;99872.26;1698425;84;21033;-80
2022/09/26 06:59:11;;;;;;;10.93;8.95;;;;;;;11.52;96.87;99875.34;1687884;83;21092;-78
2022/09/26 07:01:40;;;;;;;8.13;7.53;;;;;;;11.52;96.44;99876.67;1695329;83;21185;-84
2022/09/26 07:04:26;;;;;;;10.13;9.13;;;;;;;11.50;96.25;99879.55;1696646;83;21064;-83
2022/09/26 07:06:59;;;;;;;21.23;9.30;;;;;;;11.47;95.81;99882.64;1691136;84;21021;-79
2022/09/26 07:09:26;;;;;;;9.50;8.55;;;;;;;11.45;96.04;99898.05;1708125;81;21039;-83
2022/09/26 07:11:54;;;;;;;9.73;8.90;;;;;;;11.43;96.10;99896.09;1723223;82;21119;-79
2022/09/26 07:14:20;;;;;;;9.20;8.30;;;;;;;11.45;96.31;99893.20;1723991;81;21102;-83
2022/09/26 07:16:50;;;;;;;8.73;8.03;;;;;;;11.44;96.45;99899.58;1717573;82;21049;-78
2022/09/26 07:19:24;;;;;;;9.97;9.07;;;;;;;11.43;96.37;99893.91;1701254;83;21050;-81
2022/09/26 07:21:55;;;;;;;9.73;8.93;;;;;;;11.44;96.42;99895.05;1690590;83;21044;-79
2022/09/26 07:24:23;;;;;;;7.87;7.17;;;;;;;11.47;96.15;99888.47;1693039;82;21236;-79
2022/09/26 07:26:50;;;;;;;9.40;8.28;;;;;;;11.53;95.84;99884.16;1692135;83;21071;-78
2022/09/26 07:29:17;;;;;;;8.23;7.53;;;;;;;11.59;94.98;99889.52;1688079;82;20972;-79
2022/09/26 07:31:44;;;;;;;8.35;7.53;;;;;;;11.64;94.95;99883.54;1720925;82;21801;-78
2022/09/26 07:34:15;;;;;;;7.55;6.95;;;;;;;11.69;94.48;99883.23;1723962;81;21049;-78
2022/09/26 07:36:42;;;;;;;7.45;6.75;;;;;;;11.77;93.91;99883.55;1725253;81;20999;-78
2022/09/26 07:39:09;;;;;;;8.08;7.22;;;;;;;11.82;93.12;99872.23;1695601;82;21074;-78
2022/09/26 07:41:36;;;;;;;7.17;6.58;;;;;;;11.85;92.63;99873.17;1729406;81;21070;-79
2022/09/26 07:44:02;;;;;;;8.28;7.58;;;;;;;11.85;92.14;99865.97;1729280;81;21517;-76
2022/09/26 07:52:21;;;;;;;7.50;6.90;;;;;;;11.86;91.28;99870.80;1728375;82;21055;-80
2022/09/26 07:55:08;;;;;;;8.18;7.47;;;;;;;11.76;91.81;99845.05;1727205;82;20992;-76
2022/09/26 07:57:39;;;;;;;8.00;7.30;;;;;;;11.82;91.21;99853.55;1727316;81;21593;-76
2022/09/26 08:00:26;;;;;;;7.75;6.70;;;;;;;11.78;90.85;99853.14;1721222;81;21015;-77
2022/09/26 08:03:07;;;;;;;9.08;7.85;;;;;;;11.78;90.69;99849.66;1727122;81;20980;-80
2022/09/26 08:05:36;;;;;;;12.63;9.60;;;;;;;11.80;90.94;99851.08;1700868;83;21447;-75
2022/09/26 08:08:03;;;;;;;11.22;10.08;;;;;;;11.84;90.87;99854.97;1701485;82;21866;-79
2022/09/26 08:10:47;;;;;;;10.03;9.13;;;;;;;11.86;91.27;99844.90;1654916;85;21053;-77
2022/09/26 08:13:29;;;;;;;12.50;11.30;;;;;;;11.92;91.30;99849.14;1692302;82;21123;-75
2022/09/26 08:16:04;;;;;;;16.87;15.35;;;;;;;11.97;91.16;99844.81;1716589;82;21020;-78
2022/09/26 08:18:32;;;;;;;17.82;16.05;;;;;;;11.98;90.57;99845.13;1716423;82;21140;-76
2022/09/26 08:21:04;;;;;;;16.40;14.80;;;;;;;12.00;90.45;99848.41;1715199;82;21013;-79
2022/09/26 08:23:32;;;;;;;13.55;12.03;;;;;;;12.04;90.48;99853.63;1696034;83;21089;-77
2022/09/26 08:26:22;;;;;;;10.03;9.15;;;;;;;12.08;90.43;99854.03;1695637;83;21085;-76
2022/09/26 08:28:46;;;;;;;10.03;8.35;;;;;;;12.16;89.60;99851.64;1716109;82;21030;-76
2022/09/26 08:31:12;;;;;;;9.88;8.98;;;;;;;12.21;88.76;99845.98;1687392;83;21525;-75
2022/09/26 08:33:40;;;;;;;9.38;8.58;;;;;;;12.30;88.03;99848.41;1737565;82;21061;-74
2022/09/26 08:36:11;;;;;;;8.28;7.47;;;;;;;12.34;87.54;99842.94;1734196;81;21175;-75
2022/09/26 08:38:50;;;;;;;11.88;8.73;;;;;;;12.36;87.47;99843.57;1701242;82;21030;-75
2022/09/26 08:42:10;;;;;;;8.35;7.65;;;;;;;12.37;87.64;99837.17;1702179;82;21017;-75
2022/09/26 08:45:11;;;;;;;8.23;7.35;;;;;;;12.37;87.38;99834.50;1736133;81;21098;-76
2022/09/26 08:47:49;;;;;;;9.30;8.25;;;;;;;12.40;87.46;99841.58;1728943;82;20979;-80
2022/09/26 08:50:48;;;;;;;8.95;7.85;;;;;;;12.40;87.18;99842.11;1707296;82;21069;-78
2022/09/26 08:53:27;;;;;;;11.25;8.85;;;;;;;12.39;87.18;99845.27;1729966;81;21665;-77
2022/09/26 08:55:56;;;;;;;9.65;8.65;;;;;;;12.42;87.65;99835.51;1702990;82;21012;-77
2022/09/26 08:58:28;;;;;;;9.58;8.68;;;;;;;12.45;87.85;99839.10;1731504;81;20975;-78
2022/09/26 09:01:01;;;;;;;10.45;8.13;;;;;;;12.49;86.98;99841.33;1736586;81;21014;-82
2022/09/26 09:04:04;;;;;;;8.95;8.15;;;;;;;12.49;86.35;99839.50;1734229;81;20996;-81
2022/09/26 09:06:33;;;;;;;9.38;8.15;;;;;;;12.53;86.71;99845.24;1714123;82;21034;-80
2022/09/26 09:08:59;;;;;;;9.85;8.58;;;;;;;12.52;86.15;99840.39;1732768;82;21037;-83
2022/09/26 09:11:39;;;;;;;9.30;7.60;;;;;;;12.56;85.56;99838.11;1755254;80;21015;-81
2022/09/26 09:14:31;;;;;;;9.33;8.28;;;;;;;12.57;85.73;99841.91;1723559;80;20950;-80
2022/09/26 09:17:35;;;;;;;9.48;8.48;;;;;;;12.60;85.93;99833.48;1739691;81;21090;-80
2022/09/26 09:20:39;;;;;;;9.98;9.08;;;;;;;12.63;84.63;99833.03;1750608;80;21073;-81
2022/09/26 09:24:02;;;;;;;11.03;8.10;;;;;;;12.67;84.68;99836.10;1693318;83;21247;-83
2022/09/26 09:26:57;;;;;;;8.25;7.42;;;;;;;12.75;84.66;99835.02;1747115;82;21065;-80
2022/09/26 09:29:50;;;;;;;8.43;7.50;;;;;;;12.78;84.23;99834.61;1749828;80;20991;-80
2022/09/26 09:32:48;;;;;;;10.45;8.35;;;;;;;12.82;83.79;99835.81;1752463;80;21094;-81
2022/09/26 09:35:21;;;;;;;8.95;8.05;;;;;;;12.88;84.46;99844.30;1751818;81;21033;-80
2022/09/26 09:37:53;;;;;;;8.90;7.97;;;;;;;12.99;84.61;99842.80;1732104;81;21050;-80
2022/09/26 09:40:27;;;;;;;9.95;9.05;;;;;;;13.05;82.82;99838.76;1752014;80;21034;-80
2022/09/26 09:43:03;;;;;;;9.38;7.75;;;;;;;13.09;83.03;99836.47;1758850;80;21011;-81
2022/09/26 09:45:44;;;;;;;10.15;9.28;;;;;;;13.17;83.21;99842.07;1752429;80;21033;-84
2022/09/26 09:48:12;;;;;;;9.80;8.58;;;;;;;13.24;82.66;99846.83;1753296;80;21524;-81
2022/09/26 09:50:58;;;;;;;10.58;8.70;;;;;;;13.27;82.48;99850.95;1723925;82;21096;-80
2022/09/26 09:53:59;;;;;;;9.10;8.20;;;;;;;13.31;82.50;99849.50;1751212;81;21037;-79
2022/09/26 09:56:54;;;;;;;12.10;8.98;;;;;;;13.40;82.55;99840.16;1713598;82;21621;-81
2022/09/26 09:59:35;;;;;;;9.35;8.40;;;;;;;13.55;82.58;99833.95;1743537;80;21165;-81
2022/09/26 10:02:12;;;;;;;7.92;7.17;;;;;;;13.68;81.22;99830.86;1752732;80;21054;-78
2022/09/26 10:04:47;;;;;;;8.58;7.78;;;;;;;13.80;80.64;99829.88;1712335;82;21466;-79
2022/09/26 10:07:15;;;;;;;9.78;8.03;;;;;;;13.91;80.01;99824.84;1721053;82;21588;-80
2022/09/26 10:09:45;;;;;;;11.73;9.53;;;;;;;14.00;79.83;99822.17;1747738;81;21037;-79
2022/09/26 10:12:31;;;;;;;8.08;7.28;;;;;;;14.09;79.07;99820.83;1682444;84;21020;-80
2022/09/26 10:15:10;;;;;;;7.50;6.80;;;;;;;14.23;78.62;99820.14;1675362;83;21607;-81
2022/09/26 10:18:04;;;;;;;8.95;7.65;;;;;;;14.38;78.33;99813.05;1736453;82;21569;-80
2022/09/26 10:20:40;;;;;;;8.33;7.53;;;;;;;14.57;77.48;99809.84;1728047;81;21843;-82
2022/09/26 10:23:17;;;;;;;14.78;8.38;;;;;;;14.71;74.79;99805.94;1748550;82;21460;-83
2022/09/26 10:25:49;;;;;;;6.97;6.47;;;;;;;14.82;74.55;99811.02;1746920;81;21013;-83
2022/09/26 10:28:46;;;;;;;7.40;6.70;;;;;;;14.93;73.48;99791.45;1750735;82;21005;-79
2022/09/26 10:31:36;;;;;;;;;;;;;;;15.03;73.05;99786.88;1753982;80;21013;-83
2022/09/26 10:34:29;;;;;;;7.60;6.72;;;;;;;15.18;73.18;99774.33;1741339;81;20095;-86
2022/09/26 10:37:06;;;;;;;7.15;6.45;;;;;;;15.32;73.34;99766.88;1747606;80;21086;-85
2022/09/26 10:42:21;;;;;;;7.83;6.95;;;;;;;15.71;69.68;99768.02;1696744;83;21097;-84
2022/09/26 10:44:51;;;;;;;7.20;6.60;;;;;;;15.80;68.83;99764.46;1731459;81;20983;-86
2022/09/26 10:47:25;;;;;;;6.70;6.05;;;;;;;15.85;68.81;99760.55;1748146;81;20989;-84
2022/09/26 10:50:16;;;;;;;;;;;;;;;15.86;68.84;99755.98;1752794;80;21032;-86
2022/09/26 10:53:09;;;;;;;6.17;5.67;;;;;;;15.84;69.12;99756.74;1747122;80;20167;-86
2022/09/26 10:55:56;;;;;;;8.93;8.08;;;;;;;15.75;69.32;99763.84;1730941;82;20986;-83
2022/09/26 10:58:28;;;;;;;7.45;6.85;;;;;;;15.70;69.40;99754.83;1750465;80;21062;-84
2022/09/26 11:00:59;;;;;;;7.28;6.67;;;;;;;15.66;70.19;99755.01;1744793;80;21545;-86
2022/09/26 11:03:41;;;;;;;6.17;5.65;;;;;;;15.71;70.19;99749.22;1742193;80;21020;-86
2022/09/26 11:06:27;;;;;;;7.72;7.03;;;;;;;15.82;70.37;99746.77;1700270;82;21014;-86
2022/09/26 11:09:01;;;;;;;7.37;6.78;;;;;;;15.93;70.24;99748.06;1747704;79;21001;-88
2022/09/26 11:11:49;;;;;;;9.15;6.95;;;;;;;16.07;69.95;99745.14;1732111;81;21152;-86
2022/09/26 11:14:29;;;;;;;10.53;9.05;;;;;;;16.20;69.10;99738.63;1751252;80;21013;-85
2022/09/26 11:17:02;;;;;;;7.37;6.65;;;;;;;16.29;68.70;99732.66;1751672;79;21040;-86
2022/09/26 11:19:57;;;;;;;7.50;6.75;;;;;;;16.41;68.57;99727.22;1728800;81;21030;-86
2022/09/26 11:22:32;;;;;;;13.32;7.67;;;;;;;16.53;68.30;99726.61;1731067;81;21585;-83
2022/09/26 11:25:07;;;;;;;8.85;7.17;;;;;;;16.69;68.02;99720.98;1729868;81;21080;-85
2022/09/26 11:27:44;;;;;;;7.85;7.15;;;;;;;16.82;66.96;99719.87;1715810;81;21014;-85
2022/09/26 11:30:23;;;;;;;7.53;6.72;;;;;;;16.89;66.49;99712.43;1748920;80;21500;-88
2022/09/26 11:32:59;;;;;;;7.00;6.33;;;;;;;16.97;66.11;99705.01;1726984;81;21025;-87
2022/09/26 11:36:13;;;;;;;7.15;6.47;;;;;;;17.10;65.48;99706.02;1730508;81;21186;-84
2022/09/26 11:38:53;;;;;;;6.00;5.40;;;;;;;17.22;65.10;99708.09;1726582;81;21130;-85
2022/09/26 11:41:54;;;;;;;5.95;5.37;;;;;;;17.31;64.13;99705.80;1730046;82;22144;-85
2022/09/26 11:44:57;;;;;;;4.17;3.83;;;;;;;17.43;63.68;99715.11;1727258;82;21122;-88
2022/09/26 11:47:53;;;;;;;5.00;4.65;;;;;;;17.53;62.11;99720.63;1700604;83;20999;-87
2022/09/26 11:50:38;;;;;;;4.47;4.17;;;;;;;17.57;61.41;99719.05;1725633;83;21044;-87
2022/09/26 11:53:44;;;;;;;3.95;3.60;;;;;;;17.58;61.35;99720.70;1728736;81;20974;-83
2022/09/26 11:56:22;;;;;;;4.90;4.50;;;;;;;17.60;60.59;99720.45;1730036;81;20970;-86
2022/09/26 11:59:36;;;;;;;4.45;4.15;;;;;;;17.54;60.64;99715.53;1730651;82;21628;-84
2022/09/26 12:02:20;;;;;;;4.08;3.40;;;;;;;17.51;60.58;99713.33;1614670;87;21142;-88
2022/09/26 12:06:53;;;;;;;5.50;3.67;;;;;;;17.61;60.79;99716.17;1746471;79;23455;-86
2022/09/26 12:09:38;;;;;;;4.37;3.70;;;;;;;17.58;60.10;99715.85;1715360;82;22392;-86
2022/09/26 12:12:42;;;;;;;3.37;3.10;;;;;;;17.56;59.68;99717.44;1705636;83;21040;-88
2022/09/26 12:15:22;;;;;;;2.83;2.62;;;;;;;17.58;60.35;99707.77;1641677;86;21695;-87
2022/09/26 12:18:12;;;;;;;3.17;2.00;;;;;;;17.62;60.04;99707.00;1648788;85;21056;-88
2022/09/26 12:20:53;;;;;;;2.25;1.90;;;;;;;17.64;58.47;99712.95;1643871;85;21308;-88